Time;durP1;ratioP1;P1;durP2;ratioP2;P2;SDS_P1;SDS_P2;PMS_P1;PMS_P2;Temp;Humidity;BMP_temperature;BMP_pressure;BME280_temperature;BME280_humidity;BME280_pressure;Samples;Min_cycle;Max_cycle;Signal;HPM_P1;HPM_P2
2023/06/20 00:01:06;;;;;;;140.45;133.63;;;;;;;30.61;31.27;101053.75;5033321;28;20465;-71
2023/06/20 00:03:31;;;;;;;145.25;137.98;;;;;;;30.59;31.78;101050.56;5032028;28;20393;-70
2023/06/20 00:05:56;;;;;;;141.77;135.10;;;;;;;30.58;31.39;101045.34;5033244;28;20049;-71
2023/06/20 00:08:22;;;;;;;144.38;137.27;;;;;;;30.55;31.69;101052.47;5032620;28;20033;-71
2023/06/20 00:10:47;;;;;;;143.27;136.27;;;;;;;30.53;31.76;101052.03;5032535;28;20061;-71
2023/06/20 00:13:12;;;;;;;143.02;135.80;;;;;;;30.51;31.82;101046.03;5031651;28;20474;-71
2023/06/20 00:15:41;;;;;;;143.93;137.00;;;;;;;30.49;31.81;101053.97;5032769;28;20057;-71
2023/06/20 00:18:06;;;;;;;;;;;;;;;30.46;31.47;101046.34;5033481;28;20076;-70
2023/06/20 00:20:31;;;;;;;148.07;140.88;;;;;;;30.44;31.66;101043.09;5032081;28;19913;-70
2023/06/20 00:22:57;;;;;;;140.00;133.43;;;;;;;30.40;31.87;101048.63;5032776;28;20470;-70
2023/06/20 00:25:23;;;;;;;139.02;132.32;;;;;;;30.38;32.02;101039.81;5032114;28;20063;-70
2023/06/20 00:27:48;;;;;;;140.25;133.45;;;;;;;30.37;32.02;101040.22;5032043;28;20061;-70
2023/06/20 00:30:14;;;;;;;143.50;136.60;;;;;;;30.34;32.15;101044.56;5032434;28;20033;-71
2023/06/20 00:32:39;;;;;;;141.57;134.57;;;;;;;30.32;32.33;101043.31;5032855;28;20183;-70
2023/06/20 00:35:05;;;;;;;141.07;134.27;;;;;;;30.30;32.61;101034.50;5031535;28;20093;-71
2023/06/20 00:37:31;;;;;;;141.55;134.70;;;;;;;30.27;32.56;101044.41;5032931;28;20485;-72
2023/06/20 00:39:57;;;;;;;142.57;135.48;;;;;;;30.26;32.55;101042.00;5031949;28;20044;-70
2023/06/20 00:42:23;;;;;;;139.38;132.85;;;;;;;30.23;32.49;101046.28;5032258;28;20033;-71
2023/06/20 00:44:52;;;;;;;139.05;132.43;;;;;;;30.21;32.72;101037.50;5032687;28;20029;-71
2023/06/20 00:47:18;;;;;;;136.23;129.55;;;;;;;30.18;32.82;101039.03;5032198;28;20103;-70
2023/06/20 00:49:49;;;;;;;140.55;133.75;;;;;;;30.16;32.77;101038.63;5032398;28;20116;-71
2023/06/20 00:52:20;;;;;;;142.77;135.82;;;;;;;30.13;32.86;101041.31;5032074;28;20116;-71
2023/06/20 00:54:48;;;;;;;139.20;132.40;;;;;;;30.12;32.99;101036.94;5032018;28;20117;-71
2023/06/20 00:57:15;;;;;;;137.65;131.25;;;;;;;30.08;32.63;101031.28;5031830;28;20124;-70
2023/06/20 00:59:47;;;;;;;137.23;130.60;;;;;;;30.06;32.66;101032.81;5032412;28;20037;-71
2023/06/20 01:02:14;;;;;;;136.82;129.77;;;;;;;30.04;32.85;101024.03;5030670;28;20056;-70
2023/06/20 01:04:42;;;;;;;134.77;128.27;;;;;;;30.01;33.00;101028.34;5030754;28;20105;-69
2023/06/20 01:07:24;;;;;;;;;;;;;;;29.99;32.76;101027.94;5032346;28;20067;-71
2023/06/20 01:10:17;;;;;;;136.27;129.75;;;;;;;29.94;32.64;101022.66;5031391;28;20007;-71
2023/06/20 01:12:59;;;;;;;135.13;128.32;;;;;;;29.91;32.74;101018.66;5032488;28;20111;-70
2023/06/20 01:15:30;;;;;;;136.80;129.95;;;;;;;29.88;32.84;101018.56;5031698;28;20079;-71
2023/06/20 01:18:14;;;;;;;135.55;129.02;;;;;;;29.85;32.88;101022.88;5030988;28;20539;-71
2023/06/20 01:20:50;;;;;;;131.63;125.22;;;;;;;29.83;33.10;101018.84;5031326;28;20493;-71
2023/06/20 01:23:25;;;;;;;131.20;124.80;;;;;;;29.80;32.88;101017.63;5031619;28;20060;-70
2023/06/20 01:26:17;;;;;;;134.13;127.78;;;;;;;29.79;32.98;101012.41;5030935;28;20486;-70
2023/06/20 01:28:52;;;;;;;135.13;128.75;;;;;;;29.76;33.22;101008.38;5031877;28;20088;-70
2023/06/20 01:31:32;;;;;;;135.32;128.75;;;;;;;29.73;33.16;100998.78;5031350;28;20113;-70
2023/06/20 01:34:02;;;;;;;131.35;125.10;;;;;;;29.71;33.10;100995.56;5031766;28;20029;-69
2023/06/20 01:36:33;;;;;;;135.38;129.02;;;;;;;29.68;33.25;100987.13;5031100;28;20026;-69
2023/06/20 01:39:05;;;;;;;131.90;125.68;;;;;;;29.66;33.24;100995.03;5031912;28;20033;-69
2023/06/20 01:41:34;;;;;;;132.45;126.30;;;;;;;29.63;33.29;100992.97;5030475;28;20397;-69
2023/06/20 01:44:02;;;;;;;133.25;127.00;;;;;;;29.62;33.25;100985.81;5031516;28;20077;-69
2023/06/20 01:46:28;;;;;;;;;;;;;;;29.60;32.75;100996.50;5030043;28;20112;-70
2023/06/20 01:48:55;;;;;;;128.77;122.68;;;;;;;29.55;33.04;100992.81;5031608;28;19917;-69
2023/06/20 01:51:21;;;;;;;135.35;128.65;;;;;;;29.52;33.34;100982.44;5031267;28;20045;-70
2023/06/20 01:53:47;;;;;;;135.60;129.20;;;;;;;29.51;33.64;100977.25;5031600;28;20116;-69
2023/06/20 01:56:14;;;;;;;131.13;124.88;;;;;;;29.49;33.48;100974.81;5031644;28;20029;-69
2023/06/20 01:58:43;;;;;;;132.30;126.20;;;;;;;29.47;33.46;100973.56;5031008;28;20152;-70
2023/06/20 02:01:09;;;;;;;128.32;122.15;;;;;;;29.45;33.55;100981.47;5029322;28;20065;-70
2023/06/20 02:03:36;;;;;;;131.70;125.07;;;;;;;29.43;33.46;100975.47;5031191;28;20033;-70
2023/06/20 02:06:03;;;;;;;137.77;131.35;;;;;;;29.41;33.40;100977.78;5031335;28;20117;-70
2023/06/20 02:08:31;;;;;;;132.15;125.93;;;;;;;29.37;33.55;100972.16;5031143;28;20501;-71
2023/06/20 02:10:57;;;;;;;132.32;126.18;;;;;;;29.35;33.36;100971.72;5030546;28;20029;-70
2023/06/20 02:13:24;;;;;;;131.40;125.28;;;;;;;29.34;33.42;100972.91;5031020;28;20044;-71
2023/06/20 02:15:53;;;;;;;132.05;125.65;;;;;;;29.31;33.45;100976.44;5030029;28;20041;-71
2023/06/20 02:18:20;;;;;;;131.50;125.28;;;;;;;29.29;33.29;100978.75;5030882;28;20038;-71
2023/06/20 02:20:54;;;;;;;138.95;132.35;;;;;;;29.27;33.34;100978.31;5031437;28;20113;-71
2023/06/20 02:23:27;;;;;;;131.45;125.20;;;;;;;29.24;33.34;100977.06;5030877;28;20036;-71
2023/06/20 02:25:58;;;;;;;132.32;125.50;;;;;;;29.22;33.35;100976.63;5031075;28;20033;-71
2023/06/20 02:28:28;;;;;;;134.95;128.63;;;;;;;29.21;33.69;100977.00;5030437;28;20026;-71
2023/06/20 02:30:54;;;;;;;127.63;121.72;;;;;;;29.19;33.18;100965.44;5031209;28;20041;-71
2023/06/20 02:33:22;;;;;;;131.20;125.00;;;;;;;29.16;33.33;100966.97;5030506;28;20117;-71
2023/06/20 02:35:50;;;;;;;127.97;121.65;;;;;;;29.15;33.16;100964.53;5030693;28;20045;-70
2023/06/20 02:38:15;;;;;;;130.80;124.43;;;;;;;29.12;33.63;100974.41;5030142;28;20359;-69
2023/06/20 02:40:41;;;;;;;136.65;129.85;;;;;;;29.10;33.33;100971.19;5011265;28;20045;-70
2023/06/20 02:43:08;;;;;;;131.68;125.60;;;;;;;29.07;33.72;100963.56;5011644;28;20042;-71
2023/06/20 02:45:35;;;;;;;126.72;120.72;;;;;;;29.06;33.62;100967.53;5011417;28;20520;-71
2023/06/20 02:48:18;;;;;;;129.13;122.93;;;;;;;29.03;33.73;100963.47;5011899;28;20034;-71
2023/06/20 02:51:22;;;;;;;128.10;122.03;;;;;;;29.00;33.51;100966.97;5011310;28;20111;-71
2023/06/20 02:54:28;;;;;;;131.73;125.45;;;;;;;28.97;33.62;100961.34;5011440;28;20034;-71
2023/06/20 02:56:57;;;;;;;128.10;121.95;;;;;;;28.94;33.32;100964.84;5012743;28;20029;-70
2023/06/20 02:59:26;;;;;;;129.68;123.45;;;;;;;28.92;33.76;100962.41;5014742;28;20068;-70
2023/06/20 03:01:56;;;;;;;130.15;124.05;;;;;;;28.89;33.76;100961.16;5015123;28;20037;-70
2023/06/20 03:04:25;;;;;;;130.25;123.78;;;;;;;28.88;33.82;100950.41;5014649;28;20022;-70
2023/06/20 03:06:52;;;;;;;125.72;119.63;;;;;;;28.86;33.67;100953.56;5032845;28;20064;-70
2023/06/20 03:09:17;;;;;;;126.50;120.10;;;;;;;28.84;33.73;100947.53;5035256;28;20032;-70
2023/06/20 03:11:43;;;;;;;125.65;119.63;;;;;;;28.82;33.74;100961.00;5033738;28;20034;-70
2023/06/20 03:14:14;;;;;;;132.13;125.82;;;;;;;28.81;34.15;100962.19;5033329;28;20551;-70
2023/06/20 03:16:42;;;;;;;127.80;121.70;;;;;;;28.78;33.70;100954.56;5032885;28;20067;-71
2023/06/20 03:19:11;;;;;;;125.60;119.50;;;;;;;28.77;33.93;100955.72;5033979;28;20367;-71
2023/06/20 03:21:40;;;;;;;125.82;119.68;;;;;;;28.74;33.79;100959.22;5033877;28;20030;-69
2023/06/20 03:24:06;;;;;;;125.93;119.93;;;;;;;28.71;33.90;100962.72;5033916;28;20371;-71
2023/06/20 03:26:33;;;;;;;127.25;121.13;;;;;;;28.69;33.82;100973.41;5032606;28;20112;-70
2023/06/20 03:28:59;;;;;;;129.15;122.82;;;;;;;28.67;33.88;100976.53;5015683;28;20041;-70
2023/06/20 03:31:24;;;;;;;123.65;117.72;;;;;;;28.66;33.95;100972.16;5014384;28;20084;-70
2023/06/20 03:33:49;;;;;;;124.45;118.35;;;;;;;28.63;34.20;100981.22;5014476;28;20280;-71
2023/06/20 03:36:15;;;;;;;126.70;120.60;;;;;;;28.62;34.20;100981.56;5032894;28;20041;-71
2023/06/20 03:38:42;;;;;;;132.05;125.90;;;;;;;28.60;34.02;100984.72;5033155;28;20569;-70
2023/06/20 03:41:07;;;;;;;127.85;121.55;;;;;;;28.58;34.09;100986.25;5033705;28;20057;-70
2023/06/20 03:43:33;;;;;;;124.43;118.53;;;;;;;28.56;34.15;100989.38;5032747;28;20069;-70
2023/06/20 03:45:59;;;;;;;127.65;121.50;;;;;;;28.53;34.16;100987.31;5033678;28;20397;-70
2023/06/20 03:48:25;;;;;;;129.35;123.15;;;;;;;28.52;33.95;101004.34;5031507;28;20033;-71
2023/06/20 03:50:50;;;;;;;126.20;120.03;;;;;;;28.50;34.15;101003.88;5032708;28;20041;-71
2023/06/20 03:53:16;;;;;;;125.63;119.78;;;;;;;28.47;34.01;101002.63;5033790;28;20477;-71
2023/06/20 03:55:42;;;;;;;126.25;119.85;;;;;;;28.45;34.02;101007.72;5032492;28;20036;-71
2023/06/20 03:58:07;;;;;;;126.13;118.80;;;;;;;28.43;34.24;101002.53;5032512;28;20052;-70
2023/06/20 04:00:33;;;;;;;128.50;122.18;;;;;;;28.41;34.12;100996.50;5032095;28;20100;-70
2023/06/20 04:02:58;;;;;;;126.38;119.97;;;;;;;28.40;34.50;100999.63;5033415;28;20092;-70
2023/06/20 04:05:24;;;;;;;124.10;117.30;;;;;;;28.37;34.44;100997.56;5033638;28;20458;-71
2023/06/20 04:07:49;;;;;;;121.97;115.82;;;;;;;28.35;34.43;101000.72;5032279;28;20445;-71
2023/06/20 04:10:14;;;;;;;121.45;115.43;;;;;;;28.33;34.22;100996.69;5033300;28;20414;-71
2023/06/20 04:12:41;;;;;;;122.60;116.65;;;;;;;28.31;34.58;101002.59;5032304;28;20119;-70
2023/06/20 04:15:08;;;;;;;119.65;113.65;;;;;;;28.30;34.28;101000.16;5034004;28;20128;-71
2023/06/20 04:17:33;;;;;;;122.68;116.40;;;;;;;28.27;34.34;100998.91;5032054;28;20448;-70
2023/06/20 04:20:04;;;;;;;125.25;119.07;;;;;;;28.26;34.27;101000.09;5033289;28;20469;-70
2023/06/20 04:22:29;;;;;;;123.40;117.13;;;;;;;28.23;34.27;100992.47;5032838;28;20041;-71
2023/06/20 04:24:55;;;;;;;123.40;116.80;;;;;;;28.22;34.64;100996.41;5012296;28;20042;-70
2023/06/20 04:27:20;;;;;;;126.43;120.18;;;;;;;28.19;34.76;100984.03;5013451;28;20038;-70
2023/06/20 04:29:46;;;;;;;123.75;117.60;;;;;;;28.17;34.75;100989.16;5013412;28;20463;-69
2023/06/20 04:32:11;;;;;;;122.55;116.45;;;;;;;28.15;34.57;100985.94;5013378;28;20459;-70
2023/06/20 04:34:36;;;;;;;127.95;121.63;;;;;;;28.15;34.80;100979.53;5012788;28;20437;-70
2023/06/20 04:37:02;;;;;;;123.05;116.55;;;;;;;28.12;34.74;100975.50;5013441;28;20041;-70
2023/06/20 04:39:29;;;;;;;125.07;118.57;;;;;;;28.11;34.82;100968.34;5013212;28;20034;-70
2023/06/20 04:41:55;;;;;;;123.72;117.32;;;;;;;28.08;34.82;100968.28;5013087;28;20056;-70
2023/06/20 04:44:20;;;;;;;122.28;116.00;;;;;;;28.05;34.59;100956.72;5013422;28;20030;-70
2023/06/20 04:46:46;;;;;;;123.95;117.18;;;;;;;28.04;34.84;100960.63;5027575;28;20038;-70
2023/06/20 04:49:11;;;;;;;123.78;117.47;;;;;;;28.03;34.65;100961.81;5013379;28;20032;-69
2023/06/20 04:51:40;;;;;;;120.53;114.50;;;;;;;28.02;34.61;100964.94;5012123;28;20492;-70
2023/06/20 04:54:07;;;;;;;125.57;119.00;;;;;;;28.00;34.72;100959.75;5013164;28;20030;-69
2023/06/20 04:56:40;;;;;;;122.50;116.18;;;;;;;27.98;34.66;100950.97;5012030;28;20034;-70
2023/06/20 04:59:05;;;;;;;121.35;114.88;;;;;;;27.97;35.02;100951.31;5012588;28;20156;-69
2023/06/20 05:01:32;;;;;;;121.78;115.47;;;;;;;27.95;34.93;100954.47;5012502;28;20038;-70
2023/06/20 05:03:57;;;;;;;120.38;113.72;;;;;;;27.94;35.29;100949.25;5012864;28;20030;-70
2023/06/20 05:06:23;;;;;;;119.68;113.25;;;;;;;27.92;35.31;100935.75;5012917;28;20052;-70
2023/06/20 05:08:48;;;;;;;121.40;114.45;;;;;;;27.91;34.89;100928.56;5012238;28;20131;-70
2023/06/20 05:11:13;;;;;;;121.65;115.47;;;;;;;27.90;35.20;100923.38;5012473;28;20034;-70
2023/06/20 05:13:39;;;;;;;122.78;116.45;;;;;;;27.89;34.70;100930.06;5030927;28;20034;-70
2023/06/20 05:16:04;;;;;;;124.68;118.40;;;;;;;27.87;34.81;100935.16;5030858;28;20077;-70
2023/06/20 05:18:30;;;;;;;122.53;116.13;;;;;;;27.85;34.84;100932.78;5031894;28;20058;-70
2023/06/20 05:20:56;;;;;;;119.22;113.15;;;;;;;27.83;35.04;100932.31;5031348;28;20438;-69
2023/06/20 05:23:21;;;;;;;117.78;111.35;;;;;;;27.82;35.05;100925.13;5031900;28;20520;-70
2023/06/20 05:25:47;;;;;;;121.80;114.70;;;;;;;27.81;34.88;100917.94;5030295;28;20034;-70
2023/06/20 05:28:12;;;;;;;123.97;117.68;;;;;;;27.79;34.83;100923.84;5031753;28;20436;-70
2023/06/20 05:30:38;;;;;;;120.28;114.15;;;;;;;27.78;34.77;100922.25;5030741;28;20030;-70
2023/06/20 05:33:03;;;;;;;118.00;111.82;;;;;;;27.77;35.23;100917.03;5030268;28;20393;-70
2023/06/20 05:35:29;;;;;;;118.60;112.60;;;;;;;27.76;34.93;100919.00;5030327;28;20124;-69
2023/06/20 05:37:54;;;;;;;119.18;113.18;;;;;;;27.75;35.01;100908.28;5030455;28;20063;-69
2023/06/20 05:40:19;;;;;;;123.25;116.68;;;;;;;27.73;34.96;100908.63;5031415;28;20037;-69
2023/06/20 05:42:45;;;;;;;117.93;111.93;;;;;;;27.72;35.31;100911.75;5029223;28;20488;-69
2023/06/20 05:45:10;;;;;;;118.82;112.68;;;;;;;27.71;35.58;100913.72;5031211;28;20553;-69
2023/06/20 05:47:36;;;;;;;119.65;113.63;;;;;;;27.70;35.64;100920.44;5031037;28;20029;-70
2023/06/20 05:50:02;;;;;;;120.32;114.03;;;;;;;27.69;35.73;100937.44;5031385;28;20095;-70
2023/06/20 05:52:27;;;;;;;119.78;113.68;;;;;;;27.68;35.38;100947.75;5031173;28;20029;-69
2023/06/20 05:54:53;;;;;;;118.82;112.55;;;;;;;27.68;35.68;100946.94;5030961;28;20114;-69
2023/06/20 05:57:20;;;;;;;119.43;113.57;;;;;;;27.68;35.85;100944.16;5014440;28;20038;-69
2023/06/20 05:59:45;;;;;;;120.22;114.47;;;;;;;27.67;36.30;100946.13;5011654;28;20034;-69
2023/06/20 06:02:12;;;;;;;118.85;112.93;;;;;;;27.67;36.28;100942.53;5011100;28;20034;-69
2023/06/20 06:04:37;;;;;;;119.60;113.70;;;;;;;27.67;36.29;100953.63;5011701;28;20125;-69
2023/06/20 06:07:07;;;;;;;113.38;107.53;;;;;;;27.67;36.09;100950.84;5030054;28;20176;-69
2023/06/20 06:09:33;;;;;;;113.45;108.05;;;;;;;27.66;36.40;100940.94;5030869;28;20445;-69
2023/06/20 06:11:58;;;;;;;116.10;110.50;;;;;;;27.66;36.35;100940.94;5031012;28;20156;-69
2023/06/20 06:14:24;;;;;;;115.72;110.18;;;;;;;27.65;36.52;100940.13;5030305;28;20064;-69
2023/06/20 06:16:49;;;;;;;115.40;109.90;;;;;;;27.66;36.75;100941.72;5029576;28;20037;-69
2023/06/20 06:19:15;;;;;;;116.15;110.45;;;;;;;27.65;36.54;100942.91;5030235;28;20033;-69
2023/06/20 06:21:40;;;;;;;114.95;109.47;;;;;;;27.66;36.47;100952.03;5030553;28;20057;-69
2023/06/20 06:24:06;;;;;;;116.95;111.45;;;;;;;27.66;36.44;100943.69;5031197;28;20025;-69
2023/06/20 06:26:32;;;;;;;110.60;105.45;;;;;;;27.67;36.94;100936.97;5031119;28;20095;-69
2023/06/20 06:28:59;;;;;;;115.97;110.68;;;;;;;27.67;36.88;100923.94;5030715;28;20037;-69
2023/06/20 06:31:29;;;;;;;109.88;104.85;;;;;;;27.68;36.97;100927.50;5031425;28;20034;-68
2023/06/20 06:33:56;;;;;;;112.80;107.63;;;;;;;27.70;36.75;100933.53;5033870;28;20041;-69
2023/06/20 06:36:26;;;;;;;113.30;108.00;;;;;;;27.70;37.18;100923.22;5034690;28;20034;-68
2023/06/20 06:38:52;;;;;;;113.38;108.18;;;;;;;27.71;36.74;100924.81;5034601;28;20026;-68
2023/06/20 06:41:18;;;;;;;113.47;108.07;;;;;;;27.73;36.96;100924.47;5034100;28;20037;-69
2023/06/20 06:43:44;;;;;;;114.22;108.88;;;;;;;27.74;36.93;100918.56;5034410;28;20393;-71
2023/06/20 06:46:09;;;;;;;112.75;107.65;;;;;;;27.77;37.17;100919.81;5034892;28;20461;-70
2023/06/20 06:48:35;;;;;;;113.15;107.95;;;;;;;27.77;37.41;100919.81;5034612;28;20034;-70
2023/06/20 06:51:02;;;;;;;113.38;108.22;;;;;;;27.79;37.40;100928.59;5033950;28;20034;-70
2023/06/20 06:53:27;;;;;;;114.50;109.30;;;;;;;27.80;37.11;100917.16;5034641;28;20035;-70
2023/06/20 06:55:53;;;;;;;116.65;111.28;;;;;;;27.81;37.36;100916.00;5034011;28;20033;-70
2023/06/20 06:58:18;;;;;;;112.78;107.53;;;;;;;27.85;37.54;100912.53;5034582;28;20037;-70
2023/06/20 07:00:43;;;;;;;115.50;110.20;;;;;;;27.85;37.92;100913.34;5033229;28;20436;-70
2023/06/20 07:03:10;;;;;;;116.05;110.45;;;;;;;27.88;37.74;100915.41;5034480;28;20120;-70
2023/06/20 07:05:36;;;;;;;115.78;110.43;;;;;;;27.90;37.91;100915.84;5034477;28;20141;-69
2023/06/20 07:08:02;;;;;;;120.88;115.50;;;;;;;27.91;37.79;100914.69;5034095;28;20525;-68
2023/06/20 07:10:27;;;;;;;115.25;109.80;;;;;;;27.94;37.88;100911.19;5033651;28;20034;-69
2023/06/20 07:12:53;;;;;;;117.80;112.22;;;;;;;27.97;37.60;100906.88;5034104;28;20177;-69
2023/06/20 07:15:18;;;;;;;115.43;109.93;;;;;;;27.99;37.95;100901.78;5033840;28;20049;-69
2023/06/20 07:17:43;;;;;;;115.45;110.22;;;;;;;28.02;38.28;100895.50;5033014;28;20440;-69
2023/06/20 07:20:09;;;;;;;117.63;112.28;;;;;;;28.05;38.40;100892.03;5034280;28;20116;-69
2023/06/20 07:22:35;;;;;;;116.18;111.03;;;;;;;28.08;38.78;100893.28;5034113;28;20044;-69
2023/06/20 07:25:01;;;;;;;121.55;115.95;;;;;;;28.10;38.49;100900.09;5033867;28;20061;-69
2023/06/20 07:27:26;;;;;;;117.60;112.18;;;;;;;28.13;38.33;100898.59;5034083;28;20037;-69
2023/06/20 07:29:51;;;;;;;115.95;110.40;;;;;;;28.16;38.18;100903.41;5033793;28;20033;-69
2023/06/20 07:32:18;;;;;;;116.75;111.55;;;;;;;28.19;38.29;100909.03;5033862;28;20469;-69
2023/06/20 07:34:44;;;;;;;119.88;114.45;;;;;;;28.23;38.18;100914.69;5032667;28;20040;-69
2023/06/20 07:37:09;;;;;;;116.75;111.15;;;;;;;28.26;38.43;100908.41;5032436;28;20056;-69
2023/06/20 07:39:38;;;;;;;119.50;113.93;;;;;;;28.30;38.80;100912.09;5033813;28;20544;-69
2023/06/20 07:42:04;;;;;;;118.50;113.20;;;;;;;28.34;38.64;100914.97;5033654;28;20481;-69
2023/06/20 07:44:29;;;;;;;115.88;110.57;;;;;;;28.39;38.64;100911.91;5033755;28;20029;-69
2023/06/20 07:46:54;;;;;;;120.88;115.40;;;;;;;28.43;38.80;100905.28;5033101;28;20042;-69
2023/06/20 07:49:20;;;;;;;116.30;111.15;;;;;;;28.46;37.82;100903.78;5033379;28;20436;-69
2023/06/20 07:51:46;;;;;;;124.53;118.78;;;;;;;28.49;38.09;100900.28;5032198;28;20034;-69
2023/06/20 07:54:14;;;;;;;121.18;115.75;;;;;;;28.54;38.36;100901.97;5033421;28;20037;-69
2023/06/20 07:56:39;;;;;;;124.82;119.15;;;;;;;28.58;38.26;100900.09;5033573;28;20120;-69
2023/06/20 07:59:05;;;;;;;123.43;117.40;;;;;;;28.64;38.49;100904.19;5033083;28;20116;-69
2023/06/20 08:01:31;;;;;;;123.80;118.07;;;;;;;28.67;38.55;100901.47;5033313;28;20038;-69
2023/06/20 08:03:56;;;;;;;124.80;119.28;;;;;;;28.74;38.84;100903.63;5033122;28;20030;-69
2023/06/20 08:06:22;;;;;;;124.40;118.78;;;;;;;28.78;38.03;100904.53;5033020;28;20351;-69
2023/06/20 08:08:47;;;;;;;122.05;116.53;;;;;;;28.82;38.71;100902.63;5032807;28;20060;-69
2023/06/20 08:11:13;;;;;;;122.20;116.45;;;;;;;28.88;38.69;100897.59;5033293;28;20029;-69
2023/06/20 08:13:38;;;;;;;127.10;121.30;;;;;;;28.94;38.41;100893.34;5032114;28;20090;-70
2023/06/20 08:16:04;;;;;;;124.65;119.15;;;;;;;28.98;38.36;100891.47;5032066;28;20054;-70
2023/06/20 08:18:29;;;;;;;130.98;125.07;;;;;;;29.03;38.23;100895.91;5033185;28;20037;-70
2023/06/20 08:20:55;;;;;;;133.15;127.13;;;;;;;29.11;38.55;100894.94;5031702;28;20044;-69
2023/06/20 08:23:27;;;;;;;125.97;120.30;;;;;;;29.17;38.32;100898.22;5028421;28;20108;-69
2023/06/20 08:25:56;;;;;;;131.07;125.07;;;;;;;29.21;38.38;100897.13;5013294;28;20172;-70
2023/06/20 08:28:25;;;;;;;128.85;122.95;;;;;;;29.27;38.62;100892.88;5013603;28;20133;-69
2023/06/20 08:30:51;;;;;;;130.13;124.15;;;;;;;29.34;38.52;100895.00;5013130;28;20157;-69
2023/06/20 08:33:17;;;;;;;127.30;121.75;;;;;;;29.41;38.50;100897.09;5031375;28;20033;-69
2023/06/20 08:35:43;;;;;;;131.82;126.00;;;;;;;29.47;38.32;100895.66;5033596;28;20117;-69
2023/06/20 08:38:09;;;;;;;128.98;123.28;;;;;;;29.54;38.48;100898.56;5032241;28;20104;-69
2023/06/20 08:40:35;;;;;;;130.00;124.20;;;;;;;29.60;38.43;100899.06;5032489;28;20428;-70
2023/06/20 08:43:01;;;;;;;131.57;125.35;;;;;;;29.66;38.13;100897.63;5031203;28;20041;-70
2023/06/20 08:45:27;;;;;;;132.68;126.80;;;;;;;29.72;38.45;100896.16;5031028;28;20386;-69
2023/06/20 08:47:58;;;;;;;131.82;125.30;;;;;;;29.78;38.13;100900.22;5012850;28;20026;-70
2023/06/20 08:50:27;;;;;;;130.13;124.03;;;;;;;29.85;38.25;100894.78;5013214;28;20033;-70
2023/06/20 08:52:55;;;;;;;131.60;125.75;;;;;;;29.94;38.04;100894.56;5012936;28;20037;-70
2023/06/20 08:55:21;;;;;;;133.38;127.45;;;;;;;29.98;37.87;100895.41;5012894;28;20466;-70
2023/06/20 08:57:47;;;;;;;131.45;125.65;;;;;;;30.06;38.13;100890.75;5013149;28;20036;-70
2023/06/20 09:00:21;;;;;;;133.65;127.55;;;;;;;30.12;37.94;100886.50;5012205;28;20536;-70
2023/06/20 09:02:48;;;;;;;133.65;127.93;;;;;;;30.18;37.92;100891.38;5031334;28;20049;-70
2023/06/20 09:05:14;;;;;;;131.75;125.70;;;;;;;30.26;37.49;100894.31;5031302;28;20037;-70
2023/06/20 09:07:41;;;;;;;134.48;128.57;;;;;;;30.32;37.86;100893.63;5032087;28;20025;-70
2023/06/20 09:10:08;;;;;;;131.43;125.63;;;;;;;30.40;37.60;100905.69;5030610;28;20477;-70
2023/06/20 09:12:58;;;;;;;138.23;132.23;;;;;;;30.49;37.51;100903.47;5032209;28;20034;-70
2023/06/20 09:15:26;;;;;;;137.55;131.68;;;;;;;30.54;37.44;100903.13;5031254;28;20061;-70
2023/06/20 09:17:58;;;;;;;135.68;129.48;;;;;;;30.62;37.39;100906.81;5031646;28;20037;-71
2023/06/20 09:20:28;;;;;;;137.98;132.02;;;;;;;30.69;37.32;100897.75;5031997;28;20032;-70
2023/06/20 09:22:53;;;;;;;133.68;127.57;;;;;;;30.75;37.34;100899.84;5031449;28;20034;-70
2023/06/20 09:25:24;;;;;;;136.85;130.85;;;;;;;30.83;37.22;100904.38;5031546;28;20045;-70
2023/06/20 09:27:50;;;;;;;139.10;133.07;;;;;;;30.90;37.27;100902.88;5031458;28;20037;-69
2023/06/20 09:30:16;;;;;;;138.48;132.43;;;;;;;30.98;37.04;100904.56;5031298;28;20049;-70
2023/06/20 09:32:42;;;;;;;141.50;135.48;;;;;;;31.06;37.13;100895.09;5031467;28;20110;-70
2023/06/20 09:35:16;;;;;;;142.40;136.25;;;;;;;31.13;37.02;100903.56;5031376;28;20044;-69
2023/06/20 09:37:44;;;;;;;144.43;137.73;;;;;;;31.21;36.89;100901.66;5031347;28;20390;-70
2023/06/20 09:40:45;;;;;;;138.88;132.80;;;;;;;31.30;36.78;100899.38;5031027;28;20390;-70
2023/06/20 09:43:10;;;;;;;140.27;134.07;;;;;;;31.39;36.65;100894.31;5031035;28;20061;-70
2023/06/20 09:45:36;;;;;;;141.48;135.38;;;;;;;31.47;36.58;100898.00;5031428;28;20072;-70
2023/06/20 09:48:03;;;;;;;148.15;141.52;;;;;;;31.55;36.58;100894.13;5030540;28;20436;-70
2023/06/20 09:50:31;;;;;;;146.35;140.00;;;;;;;31.63;36.61;100892.19;5031169;28;20033;-70
2023/06/20 09:53:25;;;;;;;146.27;140.05;;;;;;;31.72;36.48;100889.88;5031109;28;20038;-69
2023/06/20 09:55:55;;;;;;;147.00;140.60;;;;;;;31.82;36.50;100899.56;5021501;28;20231;-70
2023/06/20 09:58:21;;;;;;;147.23;140.88;;;;;;;31.89;36.28;100897.63;5031612;28;20064;-69
2023/06/20 10:00:49;;;;;;;150.25;143.85;;;;;;;31.96;36.27;100896.94;5031413;28;20029;-70
2023/06/20 10:03:15;;;;;;;146.73;140.32;;;;;;;32.06;36.30;100906.59;5030406;28;20044;-70
2023/06/20 10:05:44;;;;;;;152.90;146.38;;;;;;;32.14;36.01;100893.50;5031574;28;20037;-69
2023/06/20 10:08:10;;;;;;;156.07;149.35;;;;;;;32.23;35.95;100888.34;5034111;28;20371;-70
2023/06/20 10:10:35;;;;;;;153.48;146.93;;;;;;;32.32;35.81;100889.63;5035872;28;20051;-69
2023/06/20 10:13:02;;;;;;;152.18;145.70;;;;;;;32.41;35.78;100880.09;5034618;28;20352;-70
2023/06/20 10:15:27;;;;;;;153.10;146.50;;;;;;;32.50;36.16;100872.22;5033859;28;20049;-70
2023/06/20 10:17:53;;;;;;;150.95;144.40;;;;;;;32.59;35.52;100877.47;5016379;28;20475;-71
2023/06/20 10:20:28;;;;;;;157.68;150.85;;;;;;;32.67;35.48;100865.91;5015359;28;20042;-71
2023/06/20 10:22:58;;;;;;;154.88;147.88;;;;;;;32.76;35.33;100852.41;5016132;28;20092;-71
2023/06/20 10:25:25;;;;;;;157.57;150.80;;;;;;;32.83;35.32;100848.81;5015360;28;20038;-71
2023/06/20 10:28:01;;;;;;;156.80;150.10;;;;;;;32.91;34.79;100847.66;5015974;28;20513;-71
2023/06/20 10:30:53;;;;;;;153.65;146.85;;;;;;;33.01;34.71;100846.09;5016215;28;20485;-69
2023/06/20 10:33:32;;;;;;;154.25;147.60;;;;;;;33.09;34.37;100844.97;5015362;28;20044;-70
2023/06/20 10:36:04;;;;;;;156.82;150.20;;;;;;;33.17;34.53;100843.00;5015006;28;20386;-70
2023/06/20 10:38:32;;;;;;;167.00;159.68;;;;;;;33.27;34.15;100835.81;5015823;28;20057;-70
2023/06/20 10:41:06;;;;;;;158.57;152.00;;;;;;;33.35;33.85;100837.44;5015251;28;20034;-70
2023/06/20 10:43:45;;;;;;;164.35;157.27;;;;;;;33.43;34.04;100833.44;5015435;28;20033;-70
2023/06/20 10:46:11;;;;;;;162.63;155.73;;;;;;;33.53;34.02;100840.25;5014998;28;20045;-72
2023/06/20 10:48:38;;;;;;;159.73;153.02;;;;;;;33.59;33.65;100839.50;5015144;28;20034;-71
2023/06/20 10:51:04;;;;;;;164.65;157.80;;;;;;;33.69;33.50;100839.91;5015115;28;20069;-71
2023/06/20 10:53:30;;;;;;;171.10;163.90;;;;;;;33.77;33.17;100835.91;5015651;28;20057;-69
2023/06/20 10:55:56;;;;;;;162.30;155.50;;;;;;;33.86;33.25;100836.31;5015130;28;20068;-71
2023/06/20 10:58:21;;;;;;;161.75;155.02;;;;;;;33.93;32.89;100830.72;5015024;28;20092;-69